sensor_id;sensor_type;location;lat;lon;timestamp;P1;durP1;ratioP1;P2;durP2;ratioP2
40541;SDS011;49288;52.194;5.676;2022-12-20T00:02:28;13.43;;;5.70;;
40541;SDS011;49288;52.194;5.676;2022-12-20T00:07:33;11.43;;;5.97;;
40541;SDS011;49288;52.194;5.676;2022-12-20T00:12:35;12.70;;;6.60;;
40541;SDS011;49288;52.194;5.676;2022-12-20T00:17:39;15.27;;;6.35;;
40541;SDS011;49288;52.194;5.676;2022-12-20T00:22:42;16.25;;;6.70;;
40541;SDS011;49288;52.194;5.676;2022-12-20T00:27:46;13.13;;;6.75;;
40541;SDS011;49288;52.194;5.676;2022-12-20T00:32:50;12.75;;;6.78;;
40541;SDS011;49288;52.194;5.676;2022-12-20T00:37:53;13.93;;;6.10;;
40541;SDS011;49288;52.194;5.676;2022-12-20T00:42:55;11.68;;;5.57;;
40541;SDS011;49288;52.194;5.676;2022-12-20T00:47:58;11.15;;;6.80;;
40541;SDS011;49288;52.194;5.676;2022-12-20T00:53:01;10.70;;;6.00;;
40541;SDS011;49288;52.194;5.676;2022-12-20T00:58:05;11.93;;;6.53;;
40541;SDS011;49288;52.194;5.676;2022-12-20T01:03:08;11.35;;;6.38;;
40541;SDS011;49288;52.194;5.676;2022-12-20T01:08:11;12.73;;;5.40;;
40541;SDS011;49288;52.194;5.676;2022-12-20T01:13:14;15.32;;;5.80;;
40541;SDS011;49288;52.194;5.676;2022-12-20T01:18:17;12.25;;;5.68;;
40541;SDS011;49288;52.194;5.676;2022-12-20T01:23:19;13.70;;;5.68;;
40541;SDS011;49288;52.194;5.676;2022-12-20T01:28:22;12.02;;;6.00;;
40541;SDS011;49288;52.194;5.676;2022-12-20T01:33:25;14.10;;;6.38;;
40541;SDS011;49288;52.194;5.676;2022-12-20T01:38:28;14.63;;;6.93;;
40541;SDS011;49288;52.194;5.676;2022-12-20T01:49:16;12.63;;;6.47;;
40541;SDS011;49288;52.194;5.676;2022-12-20T01:54:20;11.63;;;6.15;;
40541;SDS011;49288;52.194;5.676;2022-12-20T01:59:26;12.45;;;6.05;;
40541;SDS011;49288;52.194;5.676;2022-12-20T02:04:32;11.30;;;6.25;;
40541;SDS011;49288;52.194;5.676;2022-12-20T02:09:35;12.40;;;6.57;;
40541;SDS011;49288;52.194;5.676;2022-12-20T02:15:02;13.85;;;6.55;;
40541;SDS011;49288;52.194;5.676;2022-12-20T02:20:37;14.55;;;7.03;;
40541;SDS011;49288;52.194;5.676;2022-12-20T02:31:12;13.25;;;7.03;;
40541;SDS011;49288;52.194;5.676;2022-12-20T02:36:19;11.55;;;5.75;;
40541;SDS011;49288;52.194;5.676;2022-12-20T02:41:38;11.32;;;6.03;;
40541;SDS011;49288;52.194;5.676;2022-12-20T02:46:48;13.63;;;6.85;;
40541;SDS011;49288;52.194;5.676;2022-12-20T02:51:52;16.73;;;7.00;;
40541;SDS011;49288;52.194;5.676;2022-12-20T03:02:01;13.68;;;6.03;;
40541;SDS011;49288;52.194;5.676;2022-12-20T03:07:06;20.33;;;7.28;;
40541;SDS011;49288;52.194;5.676;2022-12-20T03:12:14;20.35;;;7.82;;
40541;SDS011;49288;52.194;5.676;2022-12-20T03:17:18;14.30;;;7.40;;
40541;SDS011;49288;52.194;5.676;2022-12-20T03:22:21;12.85;;;6.80;;
40541;SDS011;49288;52.194;5.676;2022-12-20T03:27:24;16.40;;;7.55;;
40541;SDS011;49288;52.194;5.676;2022-12-20T03:32:30;14.82;;;6.70;;
40541;SDS011;49288;52.194;5.676;2022-12-20T03:37:34;17.50;;;6.93;;
40541;SDS011;49288;52.194;5.676;2022-12-20T03:47:41;10.52;;;4.68;;
40541;SDS011;49288;52.194;5.676;2022-12-20T03:52:44;12.45;;;4.72;;
40541;SDS011;49288;52.194;5.676;2022-12-20T03:57:47;12.65;;;6.07;;
40541;SDS011;49288;52.194;5.676;2022-12-20T04:03:04;15.68;;;6.53;;
40541;SDS011;49288;52.194;5.676;2022-12-20T04:08:09;13.07;;;5.78;;
40541;SDS011;49288;52.194;5.676;2022-12-20T04:13:13;14.07;;;5.70;;
40541;SDS011;49288;52.194;5.676;2022-12-20T04:18:16;11.77;;;5.90;;
40541;SDS011;49288;52.194;5.676;2022-12-20T04:23:21;11.15;;;4.85;;
40541;SDS011;49288;52.194;5.676;2022-12-20T04:28:24;16.70;;;6.80;;
40541;SDS011;49288;52.194;5.676;2022-12-20T04:33:28;6.90;;;4.10;;
40541;SDS011;49288;52.194;5.676;2022-12-20T04:38:32;15.90;;;6.10;;
40541;SDS011;49288;52.194;5.676;2022-12-20T04:43:35;9.70;;;4.97;;
40541;SDS011;49288;52.194;5.676;2022-12-20T04:48:39;15.88;;;6.05;;
40541;SDS011;49288;52.194;5.676;2022-12-20T04:54:01;13.60;;;6.35;;
40541;SDS011;49288;52.194;5.676;2022-12-20T04:59:18;9.38;;;5.15;;
40541;SDS011;49288;52.194;5.676;2022-12-20T05:04:24;10.25;;;5.03;;
40541;SDS011;49288;52.194;5.676;2022-12-20T05:09:40;15.75;;;6.32;;
40541;SDS011;49288;52.194;5.676;2022-12-20T05:14:42;9.13;;;4.72;;
40541;SDS011;49288;52.194;5.676;2022-12-20T05:19:49;13.07;;;6.45;;
40541;SDS011;49288;52.194;5.676;2022-12-20T05:25:13;8.97;;;5.40;;
40541;SDS011;49288;52.194;5.676;2022-12-20T05:30:43;14.73;;;6.88;;
40541;SDS011;49288;52.194;5.676;2022-12-20T05:35:46;11.27;;;5.50;;
40541;SDS011;49288;52.194;5.676;2022-12-20T05:40:50;15.48;;;6.55;;
40541;SDS011;49288;52.194;5.676;2022-12-20T05:45:53;11.73;;;5.95;;
40541;SDS011;49288;52.194;5.676;2022-12-20T05:51:05;17.27;;;8.23;;
40541;SDS011;49288;52.194;5.676;2022-12-20T05:56:19;10.95;;;5.70;;
40541;SDS011;49288;52.194;5.676;2022-12-20T06:01:22;11.95;;;6.32;;
40541;SDS011;49288;52.194;5.676;2022-12-20T06:06:31;15.63;;;6.03;;
40541;SDS011;49288;52.194;5.676;2022-12-20T06:11:34;10.68;;;5.78;;
40541;SDS011;49288;52.194;5.676;2022-12-20T06:16:43;12.05;;;6.75;;
40541;SDS011;49288;52.194;5.676;2022-12-20T06:21:47;15.00;;;5.80;;
40541;SDS011;49288;52.194;5.676;2022-12-20T06:26:53;13.02;;;6.53;;
40541;SDS011;49288;52.194;5.676;2022-12-20T06:31:59;17.60;;;6.82;;
40541;SDS011;49288;52.194;5.676;2022-12-20T06:37:03;12.50;;;5.90;;
40541;SDS011;49288;52.194;5.676;2022-12-20T06:42:08;9.93;;;4.55;;
40541;SDS011;49288;52.194;5.676;2022-12-20T06:47:13;12.52;;;5.82;;
40541;SDS011;49288;52.194;5.676;2022-12-20T06:52:17;12.60;;;7.13;;
40541;SDS011;49288;52.194;5.676;2022-12-20T06:57:23;13.82;;;6.30;;
40541;SDS011;49288;52.194;5.676;2022-12-20T07:02:26;11.50;;;6.10;;
40541;SDS011;49288;52.194;5.676;2022-12-20T07:07:30;15.20;;;6.53;;
40541;SDS011;49288;52.194;5.676;2022-12-20T07:12:34;16.55;;;6.18;;
40541;SDS011;49288;52.194;5.676;2022-12-20T07:17:39;9.48;;;5.78;;
40541;SDS011;49288;52.194;5.676;2022-12-20T07:22:41;10.45;;;5.63;;
40541;SDS011;49288;52.194;5.676;2022-12-20T07:27:48;6.47;;;3.63;;
40541;SDS011;49288;52.194;5.676;2022-12-20T07:32:51;14.48;;;5.82;;
40541;SDS011;49288;52.194;5.676;2022-12-20T07:37:54;10.17;;;5.33;;
40541;SDS011;49288;52.194;5.676;2022-12-20T07:42:58;14.18;;;5.30;;
40541;SDS011;49288;52.194;5.676;2022-12-20T07:48:01;11.95;;;5.53;;
40541;SDS011;49288;52.194;5.676;2022-12-20T07:53:12;15.38;;;4.53;;
40541;SDS011;49288;52.194;5.676;2022-12-20T07:58:15;11.93;;;4.53;;
40541;SDS011;49288;52.194;5.676;2022-12-20T08:03:20;10.77;;;5.35;;
40541;SDS011;49288;52.194;5.676;2022-12-20T08:08:25;11.57;;;5.53;;
40541;SDS011;49288;52.194;5.676;2022-12-20T08:13:28;15.98;;;5.03;;
40541;SDS011;49288;52.194;5.676;2022-12-20T08:18:31;20.83;;;5.97;;
40541;SDS011;49288;52.194;5.676;2022-12-20T08:23:33;10.00;;;4.28;;
40541;SDS011;49288;52.194;5.676;2022-12-20T08:28:36;6.15;;;3.47;;
40541;SDS011;49288;52.194;5.676;2022-12-20T08:33:39;10.57;;;5.32;;
40541;SDS011;49288;52.194;5.676;2022-12-20T08:38:42;9.82;;;4.93;;
40541;SDS011;49288;52.194;5.676;2022-12-20T08:43:45;10.48;;;4.63;;
40541;SDS011;49288;52.194;5.676;2022-12-20T08:48:49;14.52;;;4.80;;
40541;SDS011;49288;52.194;5.676;2022-12-20T08:53:52;9.02;;;4.38;;
40541;SDS011;49288;52.194;5.676;2022-12-20T08:58:55;8.35;;;4.85;;
40541;SDS011;49288;52.194;5.676;2022-12-20T09:03:58;8.82;;;4.20;;
40541;SDS011;49288;52.194;5.676;2022-12-20T09:09:02;8.02;;;4.70;;
40541;SDS011;49288;52.194;5.676;2022-12-20T09:14:05;16.70;;;5.43;;
40541;SDS011;49288;52.194;5.676;2022-12-20T09:19:09;8.25;;;4.40;;
40541;SDS011;49288;52.194;5.676;2022-12-20T09:24:13;9.52;;;4.70;;
40541;SDS011;49288;52.194;5.676;2022-12-20T09:29:16;11.45;;;5.03;;
40541;SDS011;49288;52.194;5.676;2022-12-20T09:34:28;13.77;;;4.85;;
40541;SDS011;49288;52.194;5.676;2022-12-20T09:39:30;13.73;;;5.82;;
40541;SDS011;49288;52.194;5.676;2022-12-20T09:44:37;12.27;;;5.13;;
40541;SDS011;49288;52.194;5.676;2022-12-20T09:49:43;11.85;;;5.45;;
40541;SDS011;49288;52.194;5.676;2022-12-20T09:54:54;8.95;;;5.18;;
40541;SDS011;49288;52.194;5.676;2022-12-20T10:00:09;9.85;;;5.15;;
40541;SDS011;49288;52.194;5.676;2022-12-20T10:05:19;12.27;;;5.10;;
40541;SDS011;49288;52.194;5.676;2022-12-20T10:16:12;17.77;;;6.20;;
40541;SDS011;49288;52.194;5.676;2022-12-20T10:26:48;9.07;;;5.22;;
40541;SDS011;49288;52.194;5.676;2022-12-20T10:31:52;9.95;;;5.65;;
40541;SDS011;49288;52.194;5.676;2022-12-20T10:37:10;6.93;;;3.08;;
40541;SDS011;49288;52.194;5.676;2022-12-20T10:47:35;16.40;;;5.75;;
40541;SDS011;49288;52.194;5.676;2022-12-20T10:52:40;8.03;;;4.73;;
40541;SDS011;49288;52.194;5.676;2022-12-20T11:02:47;16.13;;;6.13;;
40541;SDS011;49288;52.194;5.676;2022-12-20T11:08:11;12.52;;;5.95;;
40541;SDS011;49288;52.194;5.676;2022-12-20T11:13:37;10.55;;;5.30;;
40541;SDS011;49288;52.194;5.676;2022-12-20T11:34:45;9.50;;;5.63;;
40541;SDS011;49288;52.194;5.676;2022-12-20T11:45:35;21.80;;;6.30;;
40541;SDS011;49288;52.194;5.676;2022-12-20T11:51:47;9.43;;;5.38;;
40541;SDS011;49288;52.194;5.676;2022-12-20T11:56:38;10.90;;;6.03;;
40541;SDS011;49288;52.194;5.676;2022-12-20T12:01:48;12.88;;;6.65;;
40541;SDS011;49288;52.194;5.676;2022-12-20T12:06:56;14.80;;;7.38;;
40541;SDS011;49288;52.194;5.676;2022-12-20T12:12:23;13.93;;;7.32;;
40541;SDS011;49288;52.194;5.676;2022-12-20T12:22:48;11.85;;;6.82;;
40541;SDS011;49288;52.194;5.676;2022-12-20T12:27:54;15.43;;;7.32;;
40541;SDS011;49288;52.194;5.676;2022-12-20T12:32:59;12.93;;;7.03;;
40541;SDS011;49288;52.194;5.676;2022-12-20T12:43:48;11.77;;;6.28;;
40541;SDS011;49288;52.194;5.676;2022-12-20T12:49:00;14.27;;;7.57;;
40541;SDS011;49288;52.194;5.676;2022-12-20T13:20:34;21.02;;;8.68;;
40541;SDS011;49288;52.194;5.676;2022-12-20T13:30:40;16.25;;;7.63;;
40541;SDS011;49288;52.194;5.676;2022-12-20T13:35:55;15.48;;;7.50;;
40541;SDS011;49288;52.194;5.676;2022-12-20T13:46:53;11.98;;;6.47;;
40541;SDS011;49288;52.194;5.676;2022-12-20T13:52:30;15.63;;;8.68;;
40541;SDS011;49288;52.194;5.676;2022-12-20T13:57:40;15.63;;;8.55;;
40541;SDS011;49288;52.194;5.676;2022-12-20T14:02:44;16.92;;;9.73;;
40541;SDS011;49288;52.194;5.676;2022-12-20T14:07:47;14.75;;;8.23;;
40541;SDS011;49288;52.194;5.676;2022-12-20T14:12:55;26.70;;;10.48;;
40541;SDS011;49288;52.194;5.676;2022-12-20T14:18:05;16.23;;;10.30;;
40541;SDS011;49288;52.194;5.676;2022-12-20T14:23:41;17.35;;;10.25;;
40541;SDS011;49288;52.194;5.676;2022-12-20T14:28:47;17.67;;;9.90;;
40541;SDS011;49288;52.194;5.676;2022-12-20T14:33:52;18.57;;;9.60;;
40541;SDS011;49288;52.194;5.676;2022-12-20T14:44:28;16.25;;;9.40;;
40541;SDS011;49288;52.194;5.676;2022-12-20T14:49:33;17.55;;;9.43;;
40541;SDS011;49288;52.194;5.676;2022-12-20T15:00:14;18.15;;;10.48;;
40541;SDS011;49288;52.194;5.676;2022-12-20T15:10:40;17.17;;;9.57;;
40541;SDS011;49288;52.194;5.676;2022-12-20T15:15:44;20.08;;;10.77;;
40541;SDS011;49288;52.194;5.676;2022-12-20T15:20:48;16.73;;;9.32;;
40541;SDS011;49288;52.194;5.676;2022-12-20T15:26:16;17.85;;;11.50;;
40541;SDS011;49288;52.194;5.676;2022-12-20T15:36:31;17.60;;;9.30;;
40541;SDS011;49288;52.194;5.676;2022-12-20T15:41:34;21.70;;;11.60;;
40541;SDS011;49288;52.194;5.676;2022-12-20T15:46:37;23.17;;;11.90;;
40541;SDS011;49288;52.194;5.676;2022-12-20T15:51:40;24.30;;;12.82;;
40541;SDS011;49288;52.194;5.676;2022-12-20T16:01:48;20.73;;;12.85;;
40541;SDS011;49288;52.194;5.676;2022-12-20T16:06:50;20.85;;;12.45;;
40541;SDS011;49288;52.194;5.676;2022-12-20T16:11:56;22.23;;;13.43;;
40541;SDS011;49288;52.194;5.676;2022-12-20T16:17:00;19.23;;;11.73;;
40541;SDS011;49288;52.194;5.676;2022-12-20T16:22:04;25.58;;;15.07;;
40541;SDS011;49288;52.194;5.676;2022-12-20T16:27:07;21.92;;;13.07;;
40541;SDS011;49288;52.194;5.676;2022-12-20T16:32:17;22.75;;;14.40;;
40541;SDS011;49288;52.194;5.676;2022-12-20T16:37:21;23.58;;;13.93;;
40541;SDS011;49288;52.194;5.676;2022-12-20T16:42:24;23.38;;;14.40;;
40541;SDS011;49288;52.194;5.676;2022-12-20T16:47:27;27.70;;;16.20;;
40541;SDS011;49288;52.194;5.676;2022-12-20T16:52:31;30.70;;;14.63;;
40541;SDS011;49288;52.194;5.676;2022-12-20T16:57:39;26.83;;;14.98;;
40541;SDS011;49288;52.194;5.676;2022-12-20T17:02:41;22.85;;;14.43;;
40541;SDS011;49288;52.194;5.676;2022-12-20T17:07:45;24.60;;;14.43;;
40541;SDS011;49288;52.194;5.676;2022-12-20T17:12:48;23.98;;;13.73;;
40541;SDS011;49288;52.194;5.676;2022-12-20T17:17:51;27.88;;;15.73;;
40541;SDS011;49288;52.194;5.676;2022-12-20T17:22:56;26.08;;;16.10;;
40541;SDS011;49288;52.194;5.676;2022-12-20T17:27:59;22.63;;;14.25;;
40541;SDS011;49288;52.194;5.676;2022-12-20T17:33:01;27.63;;;15.30;;
40541;SDS011;49288;52.194;5.676;2022-12-20T17:38:04;23.20;;;14.20;;
40541;SDS011;49288;52.194;5.676;2022-12-20T17:43:10;22.98;;;13.13;;
40541;SDS011;49288;52.194;5.676;2022-12-20T17:48:15;23.88;;;14.30;;
40541;SDS011;49288;52.194;5.676;2022-12-20T17:53:17;20.52;;;12.65;;
40541;SDS011;49288;52.194;5.676;2022-12-20T17:58:20;34.38;;;15.88;;
40541;SDS011;49288;52.194;5.676;2022-12-20T18:03:22;27.48;;;16.38;;
40541;SDS011;49288;52.194;5.676;2022-12-20T18:08:48;37.13;;;17.98;;
40541;SDS011;49288;52.194;5.676;2022-12-20T18:13:58;30.30;;;16.60;;
40541;SDS011;49288;52.194;5.676;2022-12-20T18:19:03;31.63;;;17.60;;
40541;SDS011;49288;52.194;5.676;2022-12-20T18:24:09;34.00;;;18.35;;
40541;SDS011;49288;52.194;5.676;2022-12-20T18:29:12;32.75;;;18.23;;
40541;SDS011;49288;52.194;5.676;2022-12-20T18:34:34;33.60;;;16.80;;
40541;SDS011;49288;52.194;5.676;2022-12-20T18:39:36;34.92;;;18.33;;
40541;SDS011;49288;52.194;5.676;2022-12-20T18:44:41;31.85;;;17.23;;
40541;SDS011;49288;52.194;5.676;2022-12-20T18:49:43;32.17;;;17.13;;
40541;SDS011;49288;52.194;5.676;2022-12-20T18:54:46;37.20;;;20.02;;
40541;SDS011;49288;52.194;5.676;2022-12-20T18:59:50;38.10;;;19.80;;
40541;SDS011;49288;52.194;5.676;2022-12-20T19:04:52;45.75;;;21.73;;
40541;SDS011;49288;52.194;5.676;2022-12-20T19:09:55;36.90;;;19.27;;
40541;SDS011;49288;52.194;5.676;2022-12-20T19:14:58;49.33;;;23.65;;
40541;SDS011;49288;52.194;5.676;2022-12-20T19:20:01;45.47;;;21.63;;
40541;SDS011;49288;52.194;5.676;2022-12-20T19:25:04;44.40;;;21.42;;
40541;SDS011;49288;52.194;5.676;2022-12-20T19:30:07;45.80;;;20.75;;
40541;SDS011;49288;52.194;5.676;2022-12-20T19:35:11;51.30;;;22.75;;
40541;SDS011;49288;52.194;5.676;2022-12-20T19:40:34;45.00;;;21.13;;
40541;SDS011;49288;52.194;5.676;2022-12-20T19:45:37;47.10;;;21.98;;
40541;SDS011;49288;52.194;5.676;2022-12-20T19:50:40;59.03;;;24.25;;
40541;SDS011;49288;52.194;5.676;2022-12-20T19:55:50;49.47;;;22.08;;
40541;SDS011;49288;52.194;5.676;2022-12-20T20:00:54;53.15;;;24.02;;
40541;SDS011;49288;52.194;5.676;2022-12-20T20:05:56;61.38;;;25.05;;
40541;SDS011;49288;52.194;5.676;2022-12-20T20:11:01;69.05;;;28.20;;
40541;SDS011;49288;52.194;5.676;2022-12-20T20:16:11;68.40;;;27.50;;
40541;SDS011;49288;52.194;5.676;2022-12-20T20:21:22;63.53;;;26.02;;
40541;SDS011;49288;52.194;5.676;2022-12-20T20:26:27;66.35;;;27.08;;
40541;SDS011;49288;52.194;5.676;2022-12-20T20:31:32;70.93;;;27.48;;
40541;SDS011;49288;52.194;5.676;2022-12-20T20:36:35;79.32;;;28.45;;
40541;SDS011;49288;52.194;5.676;2022-12-20T20:41:38;74.55;;;27.42;;
40541;SDS011;49288;52.194;5.676;2022-12-20T20:46:41;77.22;;;29.13;;
40541;SDS011;49288;52.194;5.676;2022-12-20T20:51:44;88.82;;;30.48;;
40541;SDS011;49288;52.194;5.676;2022-12-20T20:56:47;87.28;;;29.90;;
40541;SDS011;49288;52.194;5.676;2022-12-20T21:01:50;91.10;;;29.77;;
40541;SDS011;49288;52.194;5.676;2022-12-20T21:06:53;95.22;;;30.85;;
40541;SDS011;49288;52.194;5.676;2022-12-20T21:11:55;82.63;;;27.75;;
40541;SDS011;49288;52.194;5.676;2022-12-20T21:16:58;77.50;;;27.20;;
40541;SDS011;49288;52.194;5.676;2022-12-20T21:22:01;74.07;;;25.10;;
40541;SDS011;49288;52.194;5.676;2022-12-20T21:27:04;67.70;;;24.00;;
40541;SDS011;49288;52.194;5.676;2022-12-20T21:32:06;70.18;;;25.25;;
40541;SDS011;49288;52.194;5.676;2022-12-20T21:37:09;83.13;;;29.73;;
40541;SDS011;49288;52.194;5.676;2022-12-20T21:42:12;90.03;;;30.25;;
40541;SDS011;49288;52.194;5.676;2022-12-20T21:47:15;90.40;;;28.67;;
40541;SDS011;49288;52.194;5.676;2022-12-20T21:52:17;85.50;;;26.70;;
40541;SDS011;49288;52.194;5.676;2022-12-20T21:57:20;92.20;;;28.42;;
40541;SDS011;49288;52.194;5.676;2022-12-20T22:02:23;108.07;;;31.50;;
40541;SDS011;49288;52.194;5.676;2022-12-20T22:07:26;118.05;;;33.85;;
40541;SDS011;49288;52.194;5.676;2022-12-20T22:12:33;88.53;;;28.50;;
40541;SDS011;49288;52.194;5.676;2022-12-20T22:17:38;88.72;;;30.10;;
40541;SDS011;49288;52.194;5.676;2022-12-20T22:22:40;93.18;;;29.02;;
40541;SDS011;49288;52.194;5.676;2022-12-20T22:27:43;105.18;;;33.08;;
40541;SDS011;49288;52.194;5.676;2022-12-20T22:32:45;122.07;;;34.17;;
40541;SDS011;49288;52.194;5.676;2022-12-20T22:37:49;98.82;;;28.45;;
40541;SDS011;49288;52.194;5.676;2022-12-20T22:42:55;71.93;;;26.10;;
40541;SDS011;49288;52.194;5.676;2022-12-20T22:48:00;88.63;;;27.83;;
40541;SDS011;49288;52.194;5.676;2022-12-20T22:53:03;90.78;;;27.67;;
40541;SDS011;49288;52.194;5.676;2022-12-20T22:58:06;101.15;;;29.15;;
40541;SDS011;49288;52.194;5.676;2022-12-20T23:03:08;107.95;;;29.75;;
40541;SDS011;49288;52.194;5.676;2022-12-20T23:08:13;97.25;;;28.88;;
40541;SDS011;49288;52.194;5.676;2022-12-20T23:13:15;97.70;;;28.23;;
40541;SDS011;49288;52.194;5.676;2022-12-20T23:18:36;118.88;;;31.67;;
40541;SDS011;49288;52.194;5.676;2022-12-20T23:23:39;106.30;;;32.72;;
40541;SDS011;49288;52.194;5.676;2022-12-20T23:28:42;106.20;;;33.83;;
40541;SDS011;49288;52.194;5.676;2022-12-20T23:33:45;116.57;;;34.75;;
40541;SDS011;49288;52.194;5.676;2022-12-20T23:38:49;84.63;;;28.40;;
40541;SDS011;49288;52.194;5.676;2022-12-20T23:43:53;119.32;;;32.92;;
40541;SDS011;49288;52.194;5.676;2022-12-20T23:48:56;84.35;;;26.23;;
40541;SDS011;49288;52.194;5.676;2022-12-20T23:53:58;108.53;;;30.90;;
40541;SDS011;49288;52.194;5.676;2022-12-20T23:59:01;98.88;;;28.67;;
